sensor_id;sensor_type;location;lat;lon;timestamp;P1;durP1;ratioP1;P2;durP2;ratioP2
58864;SDS011;45702;52.982;6.658;2022-10-26T00:02:18;37.90;;;15.48;;
58864;SDS011;45702;52.982;6.658;2022-10-26T00:04:44;41.95;;;16.05;;
58864;SDS011;45702;52.982;6.658;2022-10-26T00:07:10;42.13;;;15.65;;
58864;SDS011;45702;52.982;6.658;2022-10-26T00:09:36;38.05;;;16.13;;
58864;SDS011;45702;52.982;6.658;2022-10-26T00:12:02;32.92;;;16.30;;
58864;SDS011;45702;52.982;6.658;2022-10-26T00:14:28;42.25;;;16.45;;
58864;SDS011;45702;52.982;6.658;2022-10-26T00:16:54;37.35;;;15.93;;
58864;SDS011;45702;52.982;6.658;2022-10-26T00:19:20;41.47;;;16.63;;
58864;SDS011;45702;52.982;6.658;2022-10-26T00:21:47;34.90;;;15.95;;
58864;SDS011;45702;52.982;6.658;2022-10-26T00:24:13;39.45;;;15.80;;
58864;SDS011;45702;52.982;6.658;2022-10-26T00:26:39;35.33;;;16.13;;
58864;SDS011;45702;52.982;6.658;2022-10-26T00:29:06;38.28;;;17.15;;
58864;SDS011;45702;52.982;6.658;2022-10-26T00:31:32;40.35;;;16.35;;
58864;SDS011;45702;52.982;6.658;2022-10-26T00:33:58;37.97;;;16.45;;
58864;SDS011;45702;52.982;6.658;2022-10-26T00:36:25;40.97;;;16.90;;
58864;SDS011;45702;52.982;6.658;2022-10-26T00:38:52;45.60;;;17.45;;
58864;SDS011;45702;52.982;6.658;2022-10-26T00:41:19;41.08;;;16.20;;
58864;SDS011;45702;52.982;6.658;2022-10-26T00:43:45;39.33;;;17.25;;
58864;SDS011;45702;52.982;6.658;2022-10-26T00:46:16;53.00;;;17.13;;
58864;SDS011;45702;52.982;6.658;2022-10-26T00:48:48;36.75;;;16.20;;
58864;SDS011;45702;52.982;6.658;2022-10-26T00:51:17;41.80;;;17.67;;
58864;SDS011;45702;52.982;6.658;2022-10-26T00:53:45;35.25;;;16.35;;
58864;SDS011;45702;52.982;6.658;2022-10-26T00:56:11;31.90;;;15.70;;
58864;SDS011;45702;52.982;6.658;2022-10-26T00:58:37;40.03;;;17.30;;
58864;SDS011;45702;52.982;6.658;2022-10-26T01:01:04;43.38;;;16.75;;
58864;SDS011;45702;52.982;6.658;2022-10-26T01:03:30;42.55;;;17.95;;
58864;SDS011;45702;52.982;6.658;2022-10-26T01:05:57;39.50;;;16.73;;
58864;SDS011;45702;52.982;6.658;2022-10-26T01:08:24;44.25;;;17.02;;
58864;SDS011;45702;52.982;6.658;2022-10-26T01:10:52;43.63;;;16.70;;
58864;SDS011;45702;52.982;6.658;2022-10-26T01:13:18;32.92;;;15.85;;
58864;SDS011;45702;52.982;6.658;2022-10-26T01:18:23;51.67;;;17.10;;
58864;SDS011;45702;52.982;6.658;2022-10-26T01:23:33;41.78;;;16.45;;
58864;SDS011;45702;52.982;6.658;2022-10-26T01:26:14;38.83;;;17.02;;
58864;SDS011;45702;52.982;6.658;2022-10-26T01:31:28;37.00;;;16.90;;
58864;SDS011;45702;52.982;6.658;2022-10-26T01:34:00;37.40;;;18.15;;
58864;SDS011;45702;52.982;6.658;2022-10-26T01:36:32;47.20;;;18.80;;
58864;SDS011;45702;52.982;6.658;2022-10-26T01:39:04;42.20;;;20.45;;
58864;SDS011;45702;52.982;6.658;2022-10-26T01:41:37;40.72;;;19.35;;
58864;SDS011;45702;52.982;6.658;2022-10-26T01:44:09;42.85;;;19.92;;
58864;SDS011;45702;52.982;6.658;2022-10-26T01:46:38;44.17;;;19.90;;
58864;SDS011;45702;52.982;6.658;2022-10-26T01:49:07;54.05;;;21.27;;
58864;SDS011;45702;52.982;6.658;2022-10-26T01:51:34;53.22;;;21.40;;
58864;SDS011;45702;52.982;6.658;2022-10-26T01:54:00;48.97;;;20.70;;
58864;SDS011;45702;52.982;6.658;2022-10-26T01:56:28;58.05;;;22.30;;
58864;SDS011;45702;52.982;6.658;2022-10-26T02:06:44;47.85;;;20.75;;
58864;SDS011;45702;52.982;6.658;2022-10-26T02:11:44;51.08;;;21.63;;
58864;SDS011;45702;52.982;6.658;2022-10-26T02:14:17;50.80;;;21.50;;
58864;SDS011;45702;52.982;6.658;2022-10-26T02:16:56;51.75;;;21.30;;
58864;SDS011;45702;52.982;6.658;2022-10-26T02:21:57;43.85;;;20.20;;
58864;SDS011;45702;52.982;6.658;2022-10-26T02:24:24;50.90;;;21.52;;
58864;SDS011;45702;52.982;6.658;2022-10-26T02:26:51;57.63;;;22.63;;
58864;SDS011;45702;52.982;6.658;2022-10-26T02:29:18;46.63;;;22.27;;
58864;SDS011;45702;52.982;6.658;2022-10-26T02:31:45;57.35;;;23.23;;
58864;SDS011;45702;52.982;6.658;2022-10-26T02:34:12;59.27;;;24.73;;
58864;SDS011;45702;52.982;6.658;2022-10-26T02:36:41;51.70;;;24.20;;
58864;SDS011;45702;52.982;6.658;2022-10-26T02:41:34;56.00;;;24.52;;
58864;SDS011;45702;52.982;6.658;2022-10-26T02:44:23;64.43;;;24.98;;
58864;SDS011;45702;52.982;6.658;2022-10-26T02:46:48;61.05;;;27.08;;
58864;SDS011;45702;52.982;6.658;2022-10-26T02:49:14;55.78;;;25.08;;
58864;SDS011;45702;52.982;6.658;2022-10-26T02:54:28;61.65;;;25.25;;
58864;SDS011;45702;52.982;6.658;2022-10-26T02:56:58;54.88;;;25.27;;
58864;SDS011;45702;52.982;6.658;2022-10-26T02:59:27;61.40;;;26.45;;
58864;SDS011;45702;52.982;6.658;2022-10-26T03:01:55;58.97;;;24.58;;
58864;SDS011;45702;52.982;6.658;2022-10-26T03:04:32;61.78;;;25.23;;
58864;SDS011;45702;52.982;6.658;2022-10-26T03:06:58;59.50;;;26.23;;
58864;SDS011;45702;52.982;6.658;2022-10-26T03:09:24;67.43;;;27.30;;
58864;SDS011;45702;52.982;6.658;2022-10-26T03:11:50;59.95;;;26.35;;
58864;SDS011;45702;52.982;6.658;2022-10-26T03:14:16;55.15;;;25.48;;
58864;SDS011;45702;52.982;6.658;2022-10-26T03:16:42;66.25;;;28.52;;
58864;SDS011;45702;52.982;6.658;2022-10-26T03:19:08;67.38;;;29.17;;
58864;SDS011;45702;52.982;6.658;2022-10-26T03:21:35;70.35;;;29.98;;
58864;SDS011;45702;52.982;6.658;2022-10-26T03:24:01;74.88;;;30.58;;
58864;SDS011;45702;52.982;6.658;2022-10-26T03:26:27;72.78;;;30.83;;
58864;SDS011;45702;52.982;6.658;2022-10-26T03:28:53;70.10;;;29.15;;
58864;SDS011;45702;52.982;6.658;2022-10-26T03:31:19;74.90;;;30.15;;
58864;SDS011;45702;52.982;6.658;2022-10-26T03:33:45;67.53;;;29.90;;
58864;SDS011;45702;52.982;6.658;2022-10-26T03:36:11;65.80;;;28.70;;
58864;SDS011;45702;52.982;6.658;2022-10-26T03:38:37;62.88;;;28.35;;
58864;SDS011;45702;52.982;6.658;2022-10-26T03:41:03;63.05;;;27.80;;
58864;SDS011;45702;52.982;6.658;2022-10-26T03:43:29;66.65;;;27.52;;
58864;SDS011;45702;52.982;6.658;2022-10-26T03:45:55;66.30;;;27.92;;
58864;SDS011;45702;52.982;6.658;2022-10-26T03:48:21;68.78;;;27.38;;
58864;SDS011;45702;52.982;6.658;2022-10-26T03:50:47;64.45;;;27.00;;
58864;SDS011;45702;52.982;6.658;2022-10-26T03:53:13;66.00;;;27.83;;
58864;SDS011;45702;52.982;6.658;2022-10-26T03:55:42;76.05;;;26.85;;
58864;SDS011;45702;52.982;6.658;2022-10-26T03:58:08;61.70;;;27.17;;
58864;SDS011;45702;52.982;6.658;2022-10-26T04:00:34;67.03;;;27.00;;
58864;SDS011;45702;52.982;6.658;2022-10-26T04:03:00;64.80;;;26.15;;
58864;SDS011;45702;52.982;6.658;2022-10-26T04:05:27;61.03;;;26.67;;
58864;SDS011;45702;52.982;6.658;2022-10-26T04:07:53;57.85;;;25.10;;
58864;SDS011;45702;52.982;6.658;2022-10-26T04:10:20;62.55;;;25.92;;
58864;SDS011;45702;52.982;6.658;2022-10-26T04:12:46;65.40;;;26.52;;
58864;SDS011;45702;52.982;6.658;2022-10-26T04:15:13;73.60;;;28.25;;
58864;SDS011;45702;52.982;6.658;2022-10-26T04:17:39;63.80;;;26.42;;
58864;SDS011;45702;52.982;6.658;2022-10-26T04:20:05;61.53;;;24.90;;
58864;SDS011;45702;52.982;6.658;2022-10-26T04:22:31;62.45;;;26.08;;
58864;SDS011;45702;52.982;6.658;2022-10-26T04:24:57;62.90;;;25.00;;
58864;SDS011;45702;52.982;6.658;2022-10-26T04:27:23;58.88;;;25.80;;
58864;SDS011;45702;52.982;6.658;2022-10-26T04:29:49;64.43;;;25.27;;
58864;SDS011;45702;52.982;6.658;2022-10-26T04:32:15;58.70;;;25.98;;
58864;SDS011;45702;52.982;6.658;2022-10-26T04:34:41;67.20;;;26.45;;
58864;SDS011;45702;52.982;6.658;2022-10-26T04:37:07;70.28;;;28.55;;
58864;SDS011;45702;52.982;6.658;2022-10-26T04:39:33;66.75;;;26.98;;
58864;SDS011;45702;52.982;6.658;2022-10-26T04:42:00;72.85;;;27.15;;
58864;SDS011;45702;52.982;6.658;2022-10-26T04:44:26;75.13;;;28.92;;
58864;SDS011;45702;52.982;6.658;2022-10-26T04:46:52;75.65;;;29.45;;
58864;SDS011;45702;52.982;6.658;2022-10-26T04:49:18;68.50;;;28.80;;
58864;SDS011;45702;52.982;6.658;2022-10-26T04:51:44;79.47;;;31.63;;
58864;SDS011;45702;52.982;6.658;2022-10-26T04:54:10;76.22;;;30.25;;
58864;SDS011;45702;52.982;6.658;2022-10-26T04:56:36;79.28;;;30.55;;
58864;SDS011;45702;52.982;6.658;2022-10-26T04:59:02;77.38;;;30.60;;
58864;SDS011;45702;52.982;6.658;2022-10-26T05:01:29;73.90;;;29.55;;
58864;SDS011;45702;52.982;6.658;2022-10-26T05:03:55;70.47;;;29.70;;
58864;SDS011;45702;52.982;6.658;2022-10-26T05:06:21;69.45;;;29.20;;
58864;SDS011;45702;52.982;6.658;2022-10-26T05:08:47;67.60;;;28.67;;
58864;SDS011;45702;52.982;6.658;2022-10-26T05:11:13;70.28;;;29.25;;
58864;SDS011;45702;52.982;6.658;2022-10-26T05:13:40;65.22;;;27.65;;
58864;SDS011;45702;52.982;6.658;2022-10-26T05:16:06;72.03;;;27.88;;
58864;SDS011;45702;52.982;6.658;2022-10-26T05:18:32;62.83;;;27.67;;
58864;SDS011;45702;52.982;6.658;2022-10-26T05:20:58;67.07;;;27.80;;
58864;SDS011;45702;52.982;6.658;2022-10-26T05:23:24;65.78;;;27.08;;
58864;SDS011;45702;52.982;6.658;2022-10-26T05:25:50;62.15;;;27.60;;
58864;SDS011;45702;52.982;6.658;2022-10-26T05:28:16;64.10;;;27.52;;
58864;SDS011;45702;52.982;6.658;2022-10-26T05:30:43;55.88;;;25.73;;
58864;SDS011;45702;52.982;6.658;2022-10-26T05:33:10;61.80;;;25.70;;
58864;SDS011;45702;52.982;6.658;2022-10-26T05:35:36;69.13;;;26.05;;
58864;SDS011;45702;52.982;6.658;2022-10-26T05:38:13;62.65;;;25.85;;
58864;SDS011;45702;52.982;6.658;2022-10-26T05:40:46;52.10;;;24.38;;
58864;SDS011;45702;52.982;6.658;2022-10-26T05:43:12;56.67;;;25.50;;
58864;SDS011;45702;52.982;6.658;2022-10-26T05:45:42;57.22;;;24.90;;
58864;SDS011;45702;52.982;6.658;2022-10-26T05:48:08;60.20;;;25.20;;
58864;SDS011;45702;52.982;6.658;2022-10-26T05:50:34;56.45;;;23.48;;
58864;SDS011;45702;52.982;6.658;2022-10-26T05:53:00;55.10;;;24.35;;
58864;SDS011;45702;52.982;6.658;2022-10-26T05:55:26;54.42;;;23.67;;
58864;SDS011;45702;52.982;6.658;2022-10-26T05:57:53;55.13;;;24.23;;
58864;SDS011;45702;52.982;6.658;2022-10-26T06:00:22;51.53;;;22.80;;
58864;SDS011;45702;52.982;6.658;2022-10-26T06:05:18;50.15;;;22.40;;
58864;SDS011;45702;52.982;6.658;2022-10-26T06:07:46;52.00;;;22.67;;
58864;SDS011;45702;52.982;6.658;2022-10-26T06:10:12;47.17;;;21.27;;
58864;SDS011;45702;52.982;6.658;2022-10-26T06:12:38;45.42;;;20.58;;
58864;SDS011;45702;52.982;6.658;2022-10-26T06:15:04;44.97;;;20.58;;
58864;SDS011;45702;52.982;6.658;2022-10-26T06:23:09;43.42;;;19.35;;
58864;SDS011;45702;52.982;6.658;2022-10-26T06:30:40;43.53;;;18.63;;
58864;SDS011;45702;52.982;6.658;2022-10-26T06:33:07;49.45;;;19.15;;
58864;SDS011;45702;52.982;6.658;2022-10-26T06:38:10;41.65;;;17.98;;
58864;SDS011;45702;52.982;6.658;2022-10-26T06:43:07;41.55;;;17.30;;
58864;SDS011;45702;52.982;6.658;2022-10-26T06:45:34;45.17;;;17.75;;
58864;SDS011;45702;52.982;6.658;2022-10-26T06:48:02;39.15;;;17.23;;
58864;SDS011;45702;52.982;6.658;2022-10-26T06:55:21;38.92;;;17.00;;
58864;SDS011;45702;52.982;6.658;2022-10-26T06:57:48;33.70;;;15.73;;
58864;SDS011;45702;52.982;6.658;2022-10-26T07:00:23;41.03;;;15.48;;
58864;SDS011;45702;52.982;6.658;2022-10-26T07:02:49;34.97;;;15.57;;
58864;SDS011;45702;52.982;6.658;2022-10-26T07:05:16;34.28;;;15.30;;
58864;SDS011;45702;52.982;6.658;2022-10-26T07:07:43;33.97;;;14.80;;
58864;SDS011;45702;52.982;6.658;2022-10-26T07:10:10;34.72;;;15.90;;
58864;SDS011;45702;52.982;6.658;2022-10-26T07:12:37;35.83;;;14.68;;
58864;SDS011;45702;52.982;6.658;2022-10-26T07:15:03;27.65;;;14.60;;
58864;SDS011;45702;52.982;6.658;2022-10-26T07:17:29;34.95;;;15.23;;
58864;SDS011;45702;52.982;6.658;2022-10-26T07:19:56;29.98;;;13.82;;
58864;SDS011;45702;52.982;6.658;2022-10-26T07:22:22;33.10;;;14.27;;
58864;SDS011;45702;52.982;6.658;2022-10-26T07:24:49;33.70;;;14.25;;
58864;SDS011;45702;52.982;6.658;2022-10-26T07:27:17;32.78;;;13.90;;
58864;SDS011;45702;52.982;6.658;2022-10-26T07:29:43;32.28;;;13.63;;
58864;SDS011;45702;52.982;6.658;2022-10-26T07:32:09;30.17;;;13.20;;
58864;SDS011;45702;52.982;6.658;2022-10-26T07:34:36;31.27;;;12.90;;
58864;SDS011;45702;52.982;6.658;2022-10-26T07:37:02;29.80;;;12.63;;
58864;SDS011;45702;52.982;6.658;2022-10-26T07:39:28;25.90;;;12.18;;
58864;SDS011;45702;52.982;6.658;2022-10-26T07:41:56;26.40;;;12.15;;
58864;SDS011;45702;52.982;6.658;2022-10-26T07:44:22;29.40;;;12.20;;
58864;SDS011;45702;52.982;6.658;2022-10-26T07:46:48;27.42;;;11.85;;
58864;SDS011;45702;52.982;6.658;2022-10-26T07:49:14;22.73;;;12.05;;
58864;SDS011;45702;52.982;6.658;2022-10-26T07:51:41;25.02;;;11.25;;
58864;SDS011;45702;52.982;6.658;2022-10-26T07:54:07;20.77;;;11.95;;
58864;SDS011;45702;52.982;6.658;2022-10-26T07:56:33;29.45;;;11.38;;
58864;SDS011;45702;52.982;6.658;2022-10-26T07:58:59;23.23;;;11.00;;
58864;SDS011;45702;52.982;6.658;2022-10-26T08:01:25;26.58;;;11.40;;
58864;SDS011;45702;52.982;6.658;2022-10-26T08:03:51;25.88;;;11.10;;
58864;SDS011;45702;52.982;6.658;2022-10-26T08:06:17;22.35;;;10.93;;
58864;SDS011;45702;52.982;6.658;2022-10-26T08:08:43;18.77;;;10.60;;
58864;SDS011;45702;52.982;6.658;2022-10-26T08:11:11;23.10;;;10.73;;
58864;SDS011;45702;52.982;6.658;2022-10-26T08:13:37;23.83;;;10.43;;
58864;SDS011;45702;52.982;6.658;2022-10-26T08:16:04;23.83;;;10.63;;
58864;SDS011;45702;52.982;6.658;2022-10-26T08:18:30;23.20;;;10.25;;
58864;SDS011;45702;52.982;6.658;2022-10-26T08:21:01;23.38;;;10.68;;
58864;SDS011;45702;52.982;6.658;2022-10-26T08:23:28;25.27;;;10.50;;
58864;SDS011;45702;52.982;6.658;2022-10-26T08:25:58;23.90;;;10.35;;
58864;SDS011;45702;52.982;6.658;2022-10-26T08:28:24;21.73;;;10.98;;
58864;SDS011;45702;52.982;6.658;2022-10-26T08:30:50;24.73;;;10.32;;
58864;SDS011;45702;52.982;6.658;2022-10-26T08:33:16;20.98;;;9.85;;
58864;SDS011;45702;52.982;6.658;2022-10-26T08:35:43;20.40;;;10.10;;
58864;SDS011;45702;52.982;6.658;2022-10-26T08:38:09;23.08;;;9.65;;
58864;SDS011;45702;52.982;6.658;2022-10-26T08:40:35;22.70;;;9.48;;
58864;SDS011;45702;52.982;6.658;2022-10-26T08:43:15;22.25;;;9.80;;
58864;SDS011;45702;52.982;6.658;2022-10-26T08:45:49;19.83;;;9.45;;
58864;SDS011;45702;52.982;6.658;2022-10-26T08:48:16;22.23;;;8.88;;
58864;SDS011;45702;52.982;6.658;2022-10-26T08:50:53;21.50;;;8.85;;
58864;SDS011;45702;52.982;6.658;2022-10-26T08:53:23;16.20;;;8.35;;
58864;SDS011;45702;52.982;6.658;2022-10-26T08:56:10;19.33;;;8.32;;
58864;SDS011;45702;52.982;6.658;2022-10-26T08:58:39;20.30;;;8.70;;
58864;SDS011;45702;52.982;6.658;2022-10-26T09:01:07;13.32;;;7.90;;
58864;SDS011;45702;52.982;6.658;2022-10-26T09:03:33;17.63;;;7.57;;
58864;SDS011;45702;52.982;6.658;2022-10-26T09:06:11;15.63;;;8.32;;
58864;SDS011;45702;52.982;6.658;2022-10-26T09:08:46;16.05;;;8.07;;
58864;SDS011;45702;52.982;6.658;2022-10-26T09:14:03;19.45;;;7.72;;
58864;SDS011;45702;52.982;6.658;2022-10-26T09:19:36;13.10;;;6.75;;
58864;SDS011;45702;52.982;6.658;2022-10-26T09:24:33;13.50;;;6.63;;
58864;SDS011;45702;52.982;6.658;2022-10-26T09:29:33;22.30;;;7.07;;
58864;SDS011;45702;52.982;6.658;2022-10-26T09:32:03;13.95;;;6.35;;
58864;SDS011;45702;52.982;6.658;2022-10-26T09:36:59;12.13;;;6.15;;
58864;SDS011;45702;52.982;6.658;2022-10-26T09:39:35;12.88;;;5.53;;
58864;SDS011;45702;52.982;6.658;2022-10-26T09:42:11;11.45;;;6.05;;
58864;SDS011;45702;52.982;6.658;2022-10-26T09:44:44;14.18;;;5.70;;
58864;SDS011;45702;52.982;6.658;2022-10-26T09:47:30;11.20;;;5.32;;
58864;SDS011;45702;52.982;6.658;2022-10-26T09:50:01;8.98;;;4.65;;
58864;SDS011;45702;52.982;6.658;2022-10-26T09:52:30;8.75;;;4.57;;
58864;SDS011;45702;52.982;6.658;2022-10-26T09:54:56;13.45;;;4.72;;
58864;SDS011;45702;52.982;6.658;2022-10-26T09:57:22;12.07;;;4.70;;
58864;SDS011;45702;52.982;6.658;2022-10-26T09:59:48;13.63;;;4.85;;
58864;SDS011;45702;52.982;6.658;2022-10-26T10:05:01;10.68;;;5.20;;
58864;SDS011;45702;52.982;6.658;2022-10-26T10:07:28;10.93;;;5.05;;
58864;SDS011;45702;52.982;6.658;2022-10-26T10:10:07;14.07;;;4.85;;
58864;SDS011;45702;52.982;6.658;2022-10-26T10:12:34;13.15;;;5.03;;
58864;SDS011;45702;52.982;6.658;2022-10-26T10:15:00;13.18;;;5.63;;
58864;SDS011;45702;52.982;6.658;2022-10-26T10:17:26;10.52;;;5.55;;
58864;SDS011;45702;52.982;6.658;2022-10-26T10:19:52;9.32;;;5.03;;
58864;SDS011;45702;52.982;6.658;2022-10-26T10:22:19;12.27;;;5.10;;
58864;SDS011;45702;52.982;6.658;2022-10-26T10:24:52;10.57;;;5.28;;
58864;SDS011;45702;52.982;6.658;2022-10-26T10:27:19;10.80;;;5.10;;
58864;SDS011;45702;52.982;6.658;2022-10-26T10:29:46;13.15;;;4.95;;
58864;SDS011;45702;52.982;6.658;2022-10-26T10:34:39;10.80;;;5.03;;
58864;SDS011;45702;52.982;6.658;2022-10-26T10:37:05;14.15;;;5.05;;
58864;SDS011;45702;52.982;6.658;2022-10-26T10:39:33;12.32;;;5.07;;
58864;SDS011;45702;52.982;6.658;2022-10-26T10:42:01;14.00;;;4.97;;
58864;SDS011;45702;52.982;6.658;2022-10-26T10:44:28;13.65;;;5.07;;
58864;SDS011;45702;52.982;6.658;2022-10-26T10:47:02;11.00;;;4.95;;
58864;SDS011;45702;52.982;6.658;2022-10-26T10:49:29;12.38;;;5.05;;
58864;SDS011;45702;52.982;6.658;2022-10-26T10:51:55;10.13;;;5.10;;
58864;SDS011;45702;52.982;6.658;2022-10-26T10:54:26;13.02;;;5.00;;
58864;SDS011;45702;52.982;6.658;2022-10-26T10:56:53;8.60;;;4.53;;
58864;SDS011;45702;52.982;6.658;2022-10-26T10:59:27;13.82;;;4.80;;
58864;SDS011;45702;52.982;6.658;2022-10-26T11:04:37;11.23;;;4.78;;
58864;SDS011;45702;52.982;6.658;2022-10-26T11:07:09;12.38;;;5.03;;
58864;SDS011;45702;52.982;6.658;2022-10-26T11:09:36;11.32;;;4.70;;
58864;SDS011;45702;52.982;6.658;2022-10-26T11:14:34;11.07;;;4.30;;
58864;SDS011;45702;52.982;6.658;2022-10-26T11:17:08;12.57;;;4.50;;
58864;SDS011;45702;52.982;6.658;2022-10-26T11:19:41;10.40;;;4.50;;
58864;SDS011;45702;52.982;6.658;2022-10-26T11:22:10;15.13;;;4.43;;
58864;SDS011;45702;52.982;6.658;2022-10-26T11:24:43;12.45;;;5.15;;
58864;SDS011;45702;52.982;6.658;2022-10-26T11:27:11;13.27;;;4.78;;
58864;SDS011;45702;52.982;6.658;2022-10-26T11:29:42;11.93;;;4.57;;
58864;SDS011;45702;52.982;6.658;2022-10-26T11:42:23;11.43;;;4.60;;
58864;SDS011;45702;52.982;6.658;2022-10-26T11:45:02;13.77;;;4.80;;
58864;SDS011;45702;52.982;6.658;2022-10-26T11:47:38;10.60;;;4.50;;
58864;SDS011;45702;52.982;6.658;2022-10-26T11:50:05;12.32;;;4.22;;
58864;SDS011;45702;52.982;6.658;2022-10-26T11:52:38;12.27;;;4.22;;
58864;SDS011;45702;52.982;6.658;2022-10-26T11:55:07;11.75;;;4.00;;
58864;SDS011;45702;52.982;6.658;2022-10-26T11:57:35;11.00;;;4.00;;
58864;SDS011;45702;52.982;6.658;2022-10-26T12:00:06;15.68;;;4.47;;
58864;SDS011;45702;52.982;6.658;2022-10-26T12:02:39;11.07;;;4.03;;
58864;SDS011;45702;52.982;6.658;2022-10-26T12:07:43;11.60;;;4.53;;
58864;SDS011;45702;52.982;6.658;2022-10-26T12:10:25;22.27;;;5.00;;
58864;SDS011;45702;52.982;6.658;2022-10-26T12:13:00;12.70;;;4.50;;
58864;SDS011;45702;52.982;6.658;2022-10-26T12:18:04;12.43;;;4.15;;
58864;SDS011;45702;52.982;6.658;2022-10-26T12:23:18;16.40;;;4.93;;
58864;SDS011;45702;52.982;6.658;2022-10-26T12:25:44;9.90;;;4.40;;
58864;SDS011;45702;52.982;6.658;2022-10-26T12:31:14;15.95;;;4.50;;
58864;SDS011;45702;52.982;6.658;2022-10-26T12:33:48;12.43;;;4.45;;
58864;SDS011;45702;52.982;6.658;2022-10-26T12:39:23;9.95;;;4.20;;
58864;SDS011;45702;52.982;6.658;2022-10-26T12:41:58;14.68;;;5.25;;
58864;SDS011;45702;52.982;6.658;2022-10-26T12:47:00;11.45;;;4.72;;
58864;SDS011;45702;52.982;6.658;2022-10-26T12:52:21;11.32;;;4.97;;
58864;SDS011;45702;52.982;6.658;2022-10-26T12:54:52;13.77;;;5.47;;
58864;SDS011;45702;52.982;6.658;2022-10-26T12:57:27;14.35;;;4.63;;
58864;SDS011;45702;52.982;6.658;2022-10-26T13:00:03;17.05;;;4.47;;
58864;SDS011;45702;52.982;6.658;2022-10-26T13:07:50;10.35;;;4.50;;
58864;SDS011;45702;52.982;6.658;2022-10-26T13:10:17;9.88;;;4.13;;
58864;SDS011;45702;52.982;6.658;2022-10-26T13:12:52;10.82;;;4.70;;
58864;SDS011;45702;52.982;6.658;2022-10-26T13:15:25;14.30;;;5.20;;
58864;SDS011;45702;52.982;6.658;2022-10-26T13:18:13;19.05;;;5.28;;
58864;SDS011;45702;52.982;6.658;2022-10-26T13:20:50;15.80;;;5.10;;
58864;SDS011;45702;52.982;6.658;2022-10-26T13:23:24;15.10;;;5.28;;
58864;SDS011;45702;52.982;6.658;2022-10-26T13:26:09;14.85;;;5.10;;
58864;SDS011;45702;52.982;6.658;2022-10-26T13:33:50;13.25;;;5.40;;
58864;SDS011;45702;52.982;6.658;2022-10-26T13:36:18;16.97;;;5.33;;
58864;SDS011;45702;52.982;6.658;2022-10-26T13:38:46;14.77;;;5.93;;
58864;SDS011;45702;52.982;6.658;2022-10-26T13:41:16;17.00;;;5.75;;
58864;SDS011;45702;52.982;6.658;2022-10-26T13:43:43;14.90;;;6.30;;
58864;SDS011;45702;52.982;6.658;2022-10-26T13:46:19;24.10;;;7.03;;
58864;SDS011;45702;52.982;6.658;2022-10-26T13:48:47;15.15;;;6.30;;
58864;SDS011;45702;52.982;6.658;2022-10-26T13:51:24;16.58;;;6.40;;
58864;SDS011;45702;52.982;6.658;2022-10-26T13:53:59;17.92;;;7.50;;
58864;SDS011;45702;52.982;6.658;2022-10-26T13:56:31;18.80;;;6.97;;
58864;SDS011;45702;52.982;6.658;2022-10-26T14:01:25;21.25;;;7.68;;
58864;SDS011;45702;52.982;6.658;2022-10-26T14:03:52;19.40;;;7.90;;
58864;SDS011;45702;52.982;6.658;2022-10-26T14:06:32;16.40;;;8.60;;
58864;SDS011;45702;52.982;6.658;2022-10-26T14:09:04;20.17;;;8.10;;
58864;SDS011;45702;52.982;6.658;2022-10-26T14:11:35;19.38;;;8.25;;
58864;SDS011;45702;52.982;6.658;2022-10-26T14:14:02;15.07;;;8.43;;
58864;SDS011;45702;52.982;6.658;2022-10-26T14:16:29;20.10;;;8.65;;
58864;SDS011;45702;52.982;6.658;2022-10-26T14:18:56;22.67;;;8.98;;
58864;SDS011;45702;52.982;6.658;2022-10-26T14:21:22;22.02;;;9.48;;
58864;SDS011;45702;52.982;6.658;2022-10-26T14:23:55;18.52;;;9.32;;
58864;SDS011;45702;52.982;6.658;2022-10-26T14:28:49;20.58;;;9.00;;
58864;SDS011;45702;52.982;6.658;2022-10-26T14:31:20;18.33;;;8.95;;
58864;SDS011;45702;52.982;6.658;2022-10-26T14:33:46;20.08;;;9.50;;
58864;SDS011;45702;52.982;6.658;2022-10-26T14:36:13;17.50;;;9.45;;
58864;SDS011;45702;52.982;6.658;2022-10-26T14:38:44;31.35;;;10.20;;
58864;SDS011;45702;52.982;6.658;2022-10-26T14:41:11;18.27;;;9.18;;
58864;SDS011;45702;52.982;6.658;2022-10-26T14:43:38;20.00;;;9.18;;
58864;SDS011;45702;52.982;6.658;2022-10-26T14:46:05;16.60;;;8.93;;
58864;SDS011;45702;52.982;6.658;2022-10-26T14:48:31;21.67;;;9.77;;
58864;SDS011;45702;52.982;6.658;2022-10-26T14:50:58;18.55;;;9.73;;
58864;SDS011;45702;52.982;6.658;2022-10-26T14:53:29;14.90;;;9.50;;
58864;SDS011;45702;52.982;6.658;2022-10-26T14:55:56;16.02;;;9.68;;
58864;SDS011;45702;52.982;6.658;2022-10-26T14:58:25;14.82;;;8.68;;
58864;SDS011;45702;52.982;6.658;2022-10-26T15:03:37;17.05;;;9.73;;
58864;SDS011;45702;52.982;6.658;2022-10-26T15:08:47;21.58;;;9.00;;
58864;SDS011;45702;52.982;6.658;2022-10-26T15:11:18;19.40;;;9.75;;
58864;SDS011;45702;52.982;6.658;2022-10-26T15:13:44;20.63;;;9.60;;
58864;SDS011;45702;52.982;6.658;2022-10-26T15:18:43;16.85;;;8.85;;
58864;SDS011;45702;52.982;6.658;2022-10-26T15:23:49;17.33;;;9.40;;
58864;SDS011;45702;52.982;6.658;2022-10-26T15:26:15;16.38;;;9.32;;
58864;SDS011;45702;52.982;6.658;2022-10-26T15:28:41;17.80;;;10.40;;
58864;SDS011;45702;52.982;6.658;2022-10-26T15:36:23;18.38;;;10.55;;
58864;SDS011;45702;52.982;6.658;2022-10-26T15:38:49;19.73;;;10.77;;
58864;SDS011;45702;52.982;6.658;2022-10-26T15:41:22;26.55;;;10.52;;
58864;SDS011;45702;52.982;6.658;2022-10-26T15:43:51;19.23;;;11.32;;
58864;SDS011;45702;52.982;6.658;2022-10-26T15:46:18;15.48;;;10.07;;
58864;SDS011;45702;52.982;6.658;2022-10-26T15:48:54;20.77;;;10.98;;
58864;SDS011;45702;52.982;6.658;2022-10-26T15:51:21;18.33;;;10.30;;
58864;SDS011;45702;52.982;6.658;2022-10-26T15:53:47;17.50;;;10.32;;
58864;SDS011;45702;52.982;6.658;2022-10-26T15:56:17;20.15;;;10.30;;
58864;SDS011;45702;52.982;6.658;2022-10-26T15:58:44;19.48;;;10.60;;
58864;SDS011;45702;52.982;6.658;2022-10-26T16:01:17;16.60;;;10.15;;
58864;SDS011;45702;52.982;6.658;2022-10-26T16:03:44;20.70;;;11.20;;
58864;SDS011;45702;52.982;6.658;2022-10-26T16:06:17;17.83;;;10.45;;
58864;SDS011;45702;52.982;6.658;2022-10-26T16:08:49;20.10;;;10.93;;
58864;SDS011;45702;52.982;6.658;2022-10-26T16:11:15;18.52;;;10.75;;
58864;SDS011;45702;52.982;6.658;2022-10-26T16:13:41;19.00;;;10.15;;
58864;SDS011;45702;52.982;6.658;2022-10-26T16:16:09;15.80;;;9.48;;
58864;SDS011;45702;52.982;6.658;2022-10-26T16:18:36;17.40;;;9.95;;
58864;SDS011;45702;52.982;6.658;2022-10-26T16:21:02;18.90;;;10.30;;
58864;SDS011;45702;52.982;6.658;2022-10-26T16:23:37;16.80;;;10.27;;
58864;SDS011;45702;52.982;6.658;2022-10-26T16:26:03;16.45;;;10.27;;
58864;SDS011;45702;52.982;6.658;2022-10-26T16:28:29;19.77;;;10.63;;
58864;SDS011;45702;52.982;6.658;2022-10-26T16:30:59;16.52;;;10.93;;
58864;SDS011;45702;52.982;6.658;2022-10-26T16:33:25;16.30;;;10.40;;
58864;SDS011;45702;52.982;6.658;2022-10-26T16:35:54;19.90;;;10.40;;
58864;SDS011;45702;52.982;6.658;2022-10-26T16:38:21;17.80;;;10.05;;
58864;SDS011;45702;52.982;6.658;2022-10-26T16:40:47;21.55;;;9.90;;
58864;SDS011;45702;52.982;6.658;2022-10-26T16:43:13;15.93;;;9.68;;
58864;SDS011;45702;52.982;6.658;2022-10-26T16:45:39;17.85;;;9.98;;
58864;SDS011;45702;52.982;6.658;2022-10-26T16:48:07;18.23;;;10.60;;